createdAt,value
2023-02-22T21:59:23.866Z,7.10
2023-02-22T22:01:55.478Z,7.20
2023-02-22T22:04:27.402Z,7.30
2023-02-22T22:06:56.541Z,7.30
2023-02-22T22:09:25.096Z,7.30
2023-02-22T22:11:54.324Z,7.30
2023-02-22T22:14:23.436Z,7.20
2023-02-22T22:16:52.952Z,7.20
2023-02-22T22:19:20.068Z,7.10
2023-02-22T22:21:47.047Z,7.20
2023-02-22T22:24:13.802Z,7.20
2023-02-22T22:26:40.723Z,7.10
2023-02-22T22:29:10.430Z,7.00
2023-02-22T22:31:37.861Z,7.00
2023-02-22T22:34:05.292Z,7.10
2023-02-22T22:36:34.337Z,7.10
2023-02-22T22:39:01.144Z,7.10
2023-02-22T22:41:28.207Z,7.10
2023-02-22T22:43:55.273Z,7.10
2023-02-22T22:46:22.221Z,7.10
2023-02-22T22:48:49.245Z,7.10
2023-02-22T22:51:20.206Z,7.10
2023-02-22T22:53:49.022Z,7.10
2023-02-22T22:56:26.237Z,7.10
2023-02-22T22:58:55.253Z,7.00
2023-02-22T23:01:27.609Z,7.00
2023-02-22T23:03:59.263Z,7.00
2023-02-22T23:06:36.421Z,7.00
2023-02-22T23:09:14.877Z,7.00
2023-02-22T23:11:47.426Z,7.10
2023-02-22T23:14:19.517Z,7.20
2023-02-22T23:16:47.818Z,7.30
2023-02-22T23:19:19.179Z,7.30
2023-02-22T23:21:50.232Z,7.30
2023-02-22T23:24:20.891Z,7.40
2023-02-22T23:26:51.263Z,7.30
2023-02-22T23:29:20.950Z,7.40
2023-02-22T23:31:49.063Z,7.40
2023-02-22T23:34:18.667Z,7.40
2023-02-22T23:36:45.373Z,7.50
2023-02-22T23:39:13.035Z,7.40
2023-02-22T23:41:40.053Z,7.50
2023-02-22T23:44:17.421Z,7.40
2023-02-22T23:46:47.940Z,7.50
2023-02-22T23:49:20.098Z,7.60
2023-02-22T23:51:47.785Z,7.60
2023-02-22T23:54:19.233Z,7.60
2023-02-22T23:56:55.059Z,7.70
2023-02-22T23:59:23.661Z,7.70
